sensor_id;sensor_type;location;lat;lon;timestamp;temperature;humidity
66119;DHT22;52912;48.564;9.302;2023-06-14T00:02:13;16.19;57.38
66119;DHT22;52912;48.564;9.302;2023-06-14T00:04:40;16.15;57.41
66119;DHT22;52912;48.564;9.302;2023-06-14T00:07:06;16.26;57.78
66119;DHT22;52912;48.564;9.302;2023-06-14T00:09:31;16.15;58.37
66119;DHT22;52912;48.564;9.302;2023-06-14T00:11:57;16.24;57.70
66119;DHT22;52912;48.564;9.302;2023-06-14T00:14:22;16.13;57.59
66119;DHT22;52912;48.564;9.302;2023-06-14T00:16:48;16.04;57.73
66119;DHT22;52912;48.564;9.302;2023-06-14T00:19:13;15.81;58.51
66119;DHT22;52912;48.564;9.302;2023-06-14T00:21:40;15.74;58.33
66119;DHT22;52912;48.564;9.302;2023-06-14T00:24:06;15.50;58.92
66119;DHT22;52912;48.564;9.302;2023-06-14T00:26:32;15.46;59.29
66119;DHT22;52912;48.564;9.302;2023-06-14T00:28:58;15.37;59.57
66119;DHT22;52912;48.564;9.302;2023-06-14T00:31:23;15.26;59.41
66119;DHT22;52912;48.564;9.302;2023-06-14T00:33:49;15.13;59.83
66119;DHT22;52912;48.564;9.302;2023-06-14T00:36:14;15.33;59.27
66119;DHT22;52912;48.564;9.302;2023-06-14T00:38:41;15.18;60.62
66119;DHT22;52912;48.564;9.302;2023-06-14T00:41:06;15.27;59.73
66119;DHT22;52912;48.564;9.302;2023-06-14T00:43:32;15.22;60.25
66119;DHT22;52912;48.564;9.302;2023-06-14T00:45:57;15.03;61.53
66119;DHT22;52912;48.564;9.302;2023-06-14T00:48:23;14.82;62.04
66119;DHT22;52912;48.564;9.302;2023-06-14T00:50:50;14.78;62.15
66119;DHT22;52912;48.564;9.302;2023-06-14T00:53:17;14.92;62.35
66119;DHT22;52912;48.564;9.302;2023-06-14T00:55:44;15.00;62.23
66119;DHT22;52912;48.564;9.302;2023-06-14T00:58:10;15.06;62.03
66119;DHT22;52912;48.564;9.302;2023-06-14T01:00:35;15.00;62.19
66119;DHT22;52912;48.564;9.302;2023-06-14T01:03:01;14.98;62.04
66119;DHT22;52912;48.564;9.302;2023-06-14T01:05:27;14.85;62.79
66119;DHT22;52912;48.564;9.302;2023-06-14T01:08:09;14.64;63.29
66119;DHT22;52912;48.564;9.302;2023-06-14T01:10:47;14.75;63.13
66119;DHT22;52912;48.564;9.302;2023-06-14T01:13:20;14.85;62.91
66119;DHT22;52912;48.564;9.302;2023-06-14T01:15:46;14.75;62.98
66119;DHT22;52912;48.564;9.302;2023-06-14T01:18:12;14.61;63.49
66119;DHT22;52912;48.564;9.302;2023-06-14T01:20:38;14.43;63.62
66119;DHT22;52912;48.564;9.302;2023-06-14T01:23:05;14.50;63.31
66119;DHT22;52912;48.564;9.302;2023-06-14T01:25:30;14.59;63.25
66119;DHT22;52912;48.564;9.302;2023-06-14T01:27:58;14.41;63.35
66119;DHT22;52912;48.564;9.302;2023-06-14T01:30:25;14.29;64.26
66119;DHT22;52912;48.564;9.302;2023-06-14T01:32:51;14.12;64.82
66119;DHT22;52912;48.564;9.302;2023-06-14T01:35:17;14.01;65.16
66119;DHT22;52912;48.564;9.302;2023-06-14T01:37:43;14.06;64.40
66119;DHT22;52912;48.564;9.302;2023-06-14T01:40:12;14.18;64.70
66119;DHT22;52912;48.564;9.302;2023-06-14T01:42:38;14.05;64.81
66119;DHT22;52912;48.564;9.302;2023-06-14T01:45:05;13.95;65.18
66119;DHT22;52912;48.564;9.302;2023-06-14T01:47:31;13.79;65.64
66119;DHT22;52912;48.564;9.302;2023-06-14T01:49:58;13.78;66.16
66119;DHT22;52912;48.564;9.302;2023-06-14T01:52:23;13.78;66.34
66119;DHT22;52912;48.564;9.302;2023-06-14T01:54:49;13.88;66.22
66119;DHT22;52912;48.564;9.302;2023-06-14T01:57:16;14.01;65.81
66119;DHT22;52912;48.564;9.302;2023-06-14T01:59:42;14.04;65.48
66119;DHT22;52912;48.564;9.302;2023-06-14T02:02:08;13.81;66.51
66119;DHT22;52912;48.564;9.302;2023-06-14T02:04:34;13.54;67.87
66119;DHT22;52912;48.564;9.302;2023-06-14T02:06:59;13.53;68.04
66119;DHT22;52912;48.564;9.302;2023-06-14T02:09:25;13.73;67.24
66119;DHT22;52912;48.564;9.302;2023-06-14T02:11:51;13.85;66.94
66119;DHT22;52912;48.564;9.302;2023-06-14T02:14:17;13.81;66.58
66119;DHT22;52912;48.564;9.302;2023-06-14T02:16:43;13.63;67.22
66119;DHT22;52912;48.564;9.302;2023-06-14T02:19:08;13.24;68.25
66119;DHT22;52912;48.564;9.302;2023-06-14T02:21:34;13.20;68.42
66119;DHT22;52912;48.564;9.302;2023-06-14T02:23:59;13.29;67.91
66119;DHT22;52912;48.564;9.302;2023-06-14T02:26:25;13.23;68.45
66119;DHT22;52912;48.564;9.302;2023-06-14T02:28:50;13.30;68.18
66119;DHT22;52912;48.564;9.302;2023-06-14T02:31:17;13.39;68.01
66119;DHT22;52912;48.564;9.302;2023-06-14T02:33:43;13.26;68.78
66119;DHT22;52912;48.564;9.302;2023-06-14T02:36:08;13.20;68.96
66119;DHT22;52912;48.564;9.302;2023-06-14T02:38:33;13.36;68.51
66119;DHT22;52912;48.564;9.302;2023-06-14T02:40:59;13.20;68.75
66119;DHT22;52912;48.564;9.302;2023-06-14T02:43:24;13.26;68.29
66119;DHT22;52912;48.564;9.302;2023-06-14T02:45:50;13.16;68.31
66119;DHT22;52912;48.564;9.302;2023-06-14T02:48:17;12.78;69.58
66119;DHT22;52912;48.564;9.302;2023-06-14T02:50:42;12.71;69.78
66119;DHT22;52912;48.564;9.302;2023-06-14T02:53:08;12.73;70.10
66119;DHT22;52912;48.564;9.302;2023-06-14T02:55:33;12.88;69.76
66119;DHT22;52912;48.564;9.302;2023-06-14T02:57:59;12.81;70.32
66119;DHT22;52912;48.564;9.302;2023-06-14T03:00:24;12.91;69.91
66119;DHT22;52912;48.564;9.302;2023-06-14T03:02:50;12.95;69.82
66119;DHT22;52912;48.564;9.302;2023-06-14T03:05:16;12.69;71.04
66119;DHT22;52912;48.564;9.302;2023-06-14T03:07:42;12.68;70.87
66119;DHT22;52912;48.564;9.302;2023-06-14T03:10:08;12.67;71.03
66119;DHT22;52912;48.564;9.302;2023-06-14T03:12:34;12.51;71.45
66119;DHT22;52912;48.564;9.302;2023-06-14T03:14:59;12.49;71.89
66119;DHT22;52912;48.564;9.302;2023-06-14T03:17:25;12.58;71.82
66119;DHT22;52912;48.564;9.302;2023-06-14T03:19:50;12.64;71.45
66119;DHT22;52912;48.564;9.302;2023-06-14T03:22:17;12.71;71.43
66119;DHT22;52912;48.564;9.302;2023-06-14T03:24:42;12.68;71.00
66119;DHT22;52912;48.564;9.302;2023-06-14T03:27:08;12.56;71.93
66119;DHT22;52912;48.564;9.302;2023-06-14T03:29:33;12.54;72.25
66119;DHT22;52912;48.564;9.302;2023-06-14T03:32:00;12.46;72.48
66119;DHT22;52912;48.564;9.302;2023-06-14T03:34:26;12.56;72.33
66119;DHT22;52912;48.564;9.302;2023-06-14T03:36:52;12.34;72.70
66119;DHT22;52912;48.564;9.302;2023-06-14T03:39:19;12.13;72.74
66119;DHT22;52912;48.564;9.302;2023-06-14T03:41:45;12.05;73.17
66119;DHT22;52912;48.564;9.302;2023-06-14T03:44:10;12.06;73.34
66119;DHT22;52912;48.564;9.302;2023-06-14T03:46:36;11.91;74.43
66119;DHT22;52912;48.564;9.302;2023-06-14T03:49:01;12.16;73.40
66119;DHT22;52912;48.564;9.302;2023-06-14T03:51:26;12.23;72.66
66119;DHT22;52912;48.564;9.302;2023-06-14T03:53:52;12.25;72.10
66119;DHT22;52912;48.564;9.302;2023-06-14T03:56:19;12.43;71.62
66119;DHT22;52912;48.564;9.302;2023-06-14T03:58:44;12.41;72.26
66119;DHT22;52912;48.564;9.302;2023-06-14T04:01:10;12.28;72.70
66119;DHT22;52912;48.564;9.302;2023-06-14T04:03:35;12.22;72.97
66119;DHT22;52912;48.564;9.302;2023-06-14T04:06:01;12.34;72.41
66119;DHT22;52912;48.564;9.302;2023-06-14T04:08:26;12.28;72.62
66119;DHT22;52912;48.564;9.302;2023-06-14T04:10:52;12.05;72.95
66119;DHT22;52912;48.564;9.302;2023-06-14T04:13:18;12.21;72.65
66119;DHT22;52912;48.564;9.302;2023-06-14T04:15:44;12.32;72.81
66119;DHT22;52912;48.564;9.302;2023-06-14T04:18:09;12.33;73.75
66119;DHT22;52912;48.564;9.302;2023-06-14T04:20:35;12.28;74.00
66119;DHT22;52912;48.564;9.302;2023-06-14T04:23:11;12.26;74.39
66119;DHT22;52912;48.564;9.302;2023-06-14T04:25:36;12.26;73.55
66119;DHT22;52912;48.564;9.302;2023-06-14T04:28:02;12.32;72.93
66119;DHT22;52912;48.564;9.302;2023-06-14T04:30:29;12.36;72.26
66119;DHT22;52912;48.564;9.302;2023-06-14T04:32:54;12.40;72.27
66119;DHT22;52912;48.564;9.302;2023-06-14T04:35:20;12.37;72.38
66119;DHT22;52912;48.564;9.302;2023-06-14T04:37:45;12.51;72.09
66119;DHT22;52912;48.564;9.302;2023-06-14T04:40:11;12.64;71.82
66119;DHT22;52912;48.564;9.302;2023-06-14T04:42:36;12.87;71.13
66119;DHT22;52912;48.564;9.302;2023-06-14T04:45:02;13.09;70.19
66119;DHT22;52912;48.564;9.302;2023-06-14T04:47:29;13.18;69.49
66119;DHT22;52912;48.564;9.302;2023-06-14T04:49:56;13.22;69.84
66119;DHT22;52912;48.564;9.302;2023-06-14T04:52:21;13.36;69.97
66119;DHT22;52912;48.564;9.302;2023-06-14T04:54:47;13.40;70.02
66119;DHT22;52912;48.564;9.302;2023-06-14T04:57:12;13.71;69.77
66119;DHT22;52912;48.564;9.302;2023-06-14T04:59:38;13.82;69.45
66119;DHT22;52912;48.564;9.302;2023-06-14T05:02:04;13.79;68.72
66119;DHT22;52912;48.564;9.302;2023-06-14T05:04:30;13.97;69.18
66119;DHT22;52912;48.564;9.302;2023-06-14T05:06:56;14.13;68.57
66119;DHT22;52912;48.564;9.302;2023-06-14T05:09:22;14.18;68.05
66119;DHT22;52912;48.564;9.302;2023-06-14T05:11:47;14.19;67.85
66119;DHT22;52912;48.564;9.302;2023-06-14T05:14:13;14.40;67.70
66119;DHT22;52912;48.564;9.302;2023-06-14T05:16:39;14.51;66.64
66119;DHT22;52912;48.564;9.302;2023-06-14T05:19:04;14.77;65.34
66119;DHT22;52912;48.564;9.302;2023-06-14T05:21:31;14.92;65.35
66119;DHT22;52912;48.564;9.302;2023-06-14T05:23:57;15.20;65.08
66119;DHT22;52912;48.564;9.302;2023-06-14T05:26:22;15.36;63.97
66119;DHT22;52912;48.564;9.302;2023-06-14T05:28:48;15.54;63.58
66119;DHT22;52912;48.564;9.302;2023-06-14T05:31:13;15.44;63.84
66119;DHT22;52912;48.564;9.302;2023-06-14T05:33:39;15.12;64.26
66119;DHT22;52912;48.564;9.302;2023-06-14T05:36:04;15.13;64.03
66119;DHT22;52912;48.564;9.302;2023-06-14T05:38:31;15.13;63.82
66119;DHT22;52912;48.564;9.302;2023-06-14T05:40:57;15.06;64.83
66119;DHT22;52912;48.564;9.302;2023-06-14T05:43:22;15.13;64.54
66119;DHT22;52912;48.564;9.302;2023-06-14T05:45:48;15.36;64.80
66119;DHT22;52912;48.564;9.302;2023-06-14T05:48:13;15.33;64.49
66119;DHT22;52912;48.564;9.302;2023-06-14T05:50:39;15.51;63.31
66119;DHT22;52912;48.564;9.302;2023-06-14T05:53:04;15.94;62.89
66119;DHT22;52912;48.564;9.302;2023-06-14T05:55:31;16.13;62.39
66119;DHT22;52912;48.564;9.302;2023-06-14T05:57:57;16.06;63.35
66119;DHT22;52912;48.564;9.302;2023-06-14T06:00:22;16.19;62.06
66119;DHT22;52912;48.564;9.302;2023-06-14T06:02:47;16.47;61.79
66119;DHT22;52912;48.564;9.302;2023-06-14T06:05:14;16.57;63.16
66119;DHT22;52912;48.564;9.302;2023-06-14T06:07:39;16.56;63.63
66119;DHT22;52912;48.564;9.302;2023-06-14T06:10:06;16.71;61.81
66119;DHT22;52912;48.564;9.302;2023-06-14T06:12:33;16.81;61.14
66119;DHT22;52912;48.564;9.302;2023-06-14T06:14:58;16.79;62.56
66119;DHT22;52912;48.564;9.302;2023-06-14T06:17:24;16.77;62.31
66119;DHT22;52912;48.564;9.302;2023-06-14T06:19:50;16.82;62.02
66119;DHT22;52912;48.564;9.302;2023-06-14T06:22:15;16.98;61.10
66119;DHT22;52912;48.564;9.302;2023-06-14T06:24:41;17.15;61.56
66119;DHT22;52912;48.564;9.302;2023-06-14T06:27:06;17.01;62.09
66119;DHT22;52912;48.564;9.302;2023-06-14T06:29:33;17.15;61.28
66119;DHT22;52912;48.564;9.302;2023-06-14T06:31:59;17.09;60.50
66119;DHT22;52912;48.564;9.302;2023-06-14T06:34:24;17.33;60.25
66119;DHT22;52912;48.564;9.302;2023-06-14T06:36:50;17.46;60.98
66119;DHT22;52912;48.564;9.302;2023-06-14T06:39:15;17.40;61.22
66119;DHT22;52912;48.564;9.302;2023-06-14T06:41:41;17.39;60.54
66119;DHT22;52912;48.564;9.302;2023-06-14T06:44:06;17.44;61.12
66119;DHT22;52912;48.564;9.302;2023-06-14T06:46:33;17.44;60.11
66119;DHT22;52912;48.564;9.302;2023-06-14T06:48:59;17.64;59.74
66119;DHT22;52912;48.564;9.302;2023-06-14T06:51:24;17.78;59.19
66119;DHT22;52912;48.564;9.302;2023-06-14T06:53:52;18.01;59.23
66119;DHT22;52912;48.564;9.302;2023-06-14T06:56:18;18.23;58.28
66119;DHT22;52912;48.564;9.302;2023-06-14T06:58:44;18.05;58.75
66119;DHT22;52912;48.564;9.302;2023-06-14T07:01:09;18.01;57.73
66119;DHT22;52912;48.564;9.302;2023-06-14T07:03:36;18.29;57.96
66119;DHT22;52912;48.564;9.302;2023-06-14T07:06:02;18.26;57.71
66119;DHT22;52912;48.564;9.302;2023-06-14T07:08:27;18.58;58.23
66119;DHT22;52912;48.564;9.302;2023-06-14T07:10:53;18.57;58.91
66119;DHT22;52912;48.564;9.302;2023-06-14T07:13:19;18.39;58.99
66119;DHT22;52912;48.564;9.302;2023-06-14T07:15:44;18.74;58.32
66119;DHT22;52912;48.564;9.302;2023-06-14T07:18:10;18.91;59.04
66119;DHT22;52912;48.564;9.302;2023-06-14T07:20:37;19.10;57.33
66119;DHT22;52912;48.564;9.302;2023-06-14T07:23:02;19.05;58.03
66119;DHT22;52912;48.564;9.302;2023-06-14T07:25:28;18.69;57.60
66119;DHT22;52912;48.564;9.302;2023-06-14T07:27:53;18.79;57.55
66119;DHT22;52912;48.564;9.302;2023-06-14T07:30:18;19.08;57.36
66119;DHT22;52912;48.564;9.302;2023-06-14T07:32:44;19.49;56.00
66119;DHT22;52912;48.564;9.302;2023-06-14T07:35:09;19.61;55.50
66119;DHT22;52912;48.564;9.302;2023-06-14T07:37:36;19.89;54.88
66119;DHT22;52912;48.564;9.302;2023-06-14T07:40:02;19.96;55.12
66119;DHT22;52912;48.564;9.302;2023-06-14T07:42:27;20.00;54.40
66119;DHT22;52912;48.564;9.302;2023-06-14T07:44:53;20.12;54.65
66119;DHT22;52912;48.564;9.302;2023-06-14T07:47:18;20.12;54.17
66119;DHT22;52912;48.564;9.302;2023-06-14T07:49:44;20.45;55.06
66119;DHT22;52912;48.564;9.302;2023-06-14T07:52:09;20.45;53.59
66119;DHT22;52912;48.564;9.302;2023-06-14T07:54:37;20.22;52.00
66119;DHT22;52912;48.564;9.302;2023-06-14T07:57:02;20.40;53.12
66119;DHT22;52912;48.564;9.302;2023-06-14T07:59:28;20.43;53.10
66119;DHT22;52912;48.564;9.302;2023-06-14T08:01:53;20.84;52.12
66119;DHT22;52912;48.564;9.302;2023-06-14T08:04:19;21.15;52.63
66119;DHT22;52912;48.564;9.302;2023-06-14T08:06:44;21.18;53.14
66119;DHT22;52912;48.564;9.302;2023-06-14T08:09:10;21.68;52.65
66119;DHT22;52912;48.564;9.302;2023-06-14T08:11:37;21.98;51.49
66119;DHT22;52912;48.564;9.302;2023-06-14T08:14:02;21.92;51.96
66119;DHT22;52912;48.564;9.302;2023-06-14T08:16:28;22.12;50.96
66119;DHT22;52912;48.564;9.302;2023-06-14T08:18:53;21.86;51.17
66119;DHT22;52912;48.564;9.302;2023-06-14T08:21:19;22.06;51.81
66119;DHT22;52912;48.564;9.302;2023-06-14T08:23:44;21.98;51.61
66119;DHT22;52912;48.564;9.302;2023-06-14T08:26:10;22.43;50.82
66119;DHT22;52912;48.564;9.302;2023-06-14T08:28:37;22.40;51.02
66119;DHT22;52912;48.564;9.302;2023-06-14T08:31:02;22.58;51.67
66119;DHT22;52912;48.564;9.302;2023-06-14T08:33:28;22.47;49.24
66119;DHT22;52912;48.564;9.302;2023-06-14T08:35:53;22.64;49.31
66119;DHT22;52912;48.564;9.302;2023-06-14T08:38:19;22.39;50.22
66119;DHT22;52912;48.564;9.302;2023-06-14T08:40:45;22.47;50.08
66119;DHT22;52912;48.564;9.302;2023-06-14T08:43:13;22.35;49.67
66119;DHT22;52912;48.564;9.302;2023-06-14T08:45:40;23.08;49.03
66119;DHT22;52912;48.564;9.302;2023-06-14T08:48:06;22.94;48.95
66119;DHT22;52912;48.564;9.302;2023-06-14T08:50:32;23.26;48.64
66119;DHT22;52912;48.564;9.302;2023-06-14T08:53:01;23.40;48.81
66119;DHT22;52912;48.564;9.302;2023-06-14T08:55:27;23.46;47.91
66119;DHT22;52912;48.564;9.302;2023-06-14T08:57:54;23.39;48.08
66119;DHT22;52912;48.564;9.302;2023-06-14T09:00:20;23.44;46.96
66119;DHT22;52912;48.564;9.302;2023-06-14T09:02:48;23.78;46.63
66119;DHT22;52912;48.564;9.302;2023-06-14T09:05:14;24.41;45.81
66119;DHT22;52912;48.564;9.302;2023-06-14T09:07:39;24.44;45.33
66119;DHT22;52912;48.564;9.302;2023-06-14T09:10:10;24.20;45.83
66119;DHT22;52912;48.564;9.302;2023-06-14T09:12:36;24.15;45.72
66119;DHT22;52912;48.564;9.302;2023-06-14T09:15:02;24.61;46.08
66119;DHT22;52912;48.564;9.302;2023-06-14T09:17:27;24.96;45.67
66119;DHT22;52912;48.564;9.302;2023-06-14T09:19:55;24.87;44.15
66119;DHT22;52912;48.564;9.302;2023-06-14T09:22:21;24.92;44.73
66119;DHT22;52912;48.564;9.302;2023-06-14T09:24:46;24.70;45.39
66119;DHT22;52912;48.564;9.302;2023-06-14T09:27:15;24.10;44.53
66119;DHT22;52912;48.564;9.302;2023-06-14T09:29:40;24.71;44.15
66119;DHT22;52912;48.564;9.302;2023-06-14T09:32:06;24.44;44.03
66119;DHT22;52912;48.564;9.302;2023-06-14T09:34:32;25.29;43.31
66119;DHT22;52912;48.564;9.302;2023-06-14T09:36:59;24.98;44.05
66119;DHT22;52912;48.564;9.302;2023-06-14T09:39:25;25.14;43.78
66119;DHT22;52912;48.564;9.302;2023-06-14T09:41:50;25.66;43.61
66119;DHT22;52912;48.564;9.302;2023-06-14T09:44:16;25.59;43.46
66119;DHT22;52912;48.564;9.302;2023-06-14T09:46:42;25.73;42.50
66119;DHT22;52912;48.564;9.302;2023-06-14T09:49:08;25.98;43.53
66119;DHT22;52912;48.564;9.302;2023-06-14T09:51:34;26.88;42.45
66119;DHT22;52912;48.564;9.302;2023-06-14T09:54:03;25.44;42.91
66119;DHT22;52912;48.564;9.302;2023-06-14T09:56:30;25.78;42.85
66119;DHT22;52912;48.564;9.302;2023-06-14T09:58:57;26.16;42.78
66119;DHT22;52912;48.564;9.302;2023-06-14T10:01:24;26.02;42.74
66119;DHT22;52912;48.564;9.302;2023-06-14T10:03:50;27.03;40.89
66119;DHT22;52912;48.564;9.302;2023-06-14T10:06:19;27.12;40.55
66119;DHT22;52912;48.564;9.302;2023-06-14T10:08:45;26.04;41.40
66119;DHT22;52912;48.564;9.302;2023-06-14T10:11:12;26.85;40.87
66119;DHT22;52912;48.564;9.302;2023-06-14T10:13:38;26.77;40.30
66119;DHT22;52912;48.564;9.302;2023-06-14T10:16:09;26.91;40.39
66119;DHT22;52912;48.564;9.302;2023-06-14T10:18:42;26.64;40.91
66119;DHT22;52912;48.564;9.302;2023-06-14T10:21:15;27.19;39.15
66119;DHT22;52912;48.564;9.302;2023-06-14T10:23:42;27.30;39.22
66119;DHT22;52912;48.564;9.302;2023-06-14T10:26:19;27.73;39.05
66119;DHT22;52912;48.564;9.302;2023-06-14T10:28:55;27.71;37.86
66119;DHT22;52912;48.564;9.302;2023-06-14T10:31:21;27.60;39.14
66119;DHT22;52912;48.564;9.302;2023-06-14T10:33:49;27.85;38.87
66119;DHT22;52912;48.564;9.302;2023-06-14T10:36:28;27.74;40.19
66119;DHT22;52912;48.564;9.302;2023-06-14T10:38:57;28.53;38.59
66119;DHT22;52912;48.564;9.302;2023-06-14T10:41:26;28.42;37.86
66119;DHT22;52912;48.564;9.302;2023-06-14T10:43:52;28.20;38.74
66119;DHT22;52912;48.564;9.302;2023-06-14T10:46:17;28.68;38.51
66119;DHT22;52912;48.564;9.302;2023-06-14T10:48:43;28.31;38.32
66119;DHT22;52912;48.564;9.302;2023-06-14T10:51:15;28.94;37.37
66119;DHT22;52912;48.564;9.302;2023-06-14T10:53:41;28.71;37.10
66119;DHT22;52912;48.564;9.302;2023-06-14T10:56:08;29.50;37.50
66119;DHT22;52912;48.564;9.302;2023-06-14T10:58:35;29.14;36.97
66119;DHT22;52912;48.564;9.302;2023-06-14T11:01:01;27.98;39.70
66119;DHT22;52912;48.564;9.302;2023-06-14T11:03:47;27.56;40.32
66119;DHT22;52912;48.564;9.302;2023-06-14T11:06:15;26.85;41.05
66119;DHT22;52912;48.564;9.302;2023-06-14T11:09:13;26.94;40.50
66119;DHT22;52912;48.564;9.302;2023-06-14T11:11:44;26.87;40.85
66119;DHT22;52912;48.564;9.302;2023-06-14T11:14:12;26.88;40.25
66119;DHT22;52912;48.564;9.302;2023-06-14T11:16:37;27.63;39.05
66119;DHT22;52912;48.564;9.302;2023-06-14T11:19:03;28.13;38.14
66119;DHT22;52912;48.564;9.302;2023-06-14T11:21:29;27.85;37.71
66119;DHT22;52912;48.564;9.302;2023-06-14T11:23:54;28.77;37.88
66119;DHT22;52912;48.564;9.302;2023-06-14T11:26:26;29.27;36.58
66119;DHT22;52912;48.564;9.302;2023-06-14T11:28:55;29.46;36.77
66119;DHT22;52912;48.564;9.302;2023-06-14T11:31:22;29.85;36.34
66119;DHT22;52912;48.564;9.302;2023-06-14T11:33:49;30.04;35.91
66119;DHT22;52912;48.564;9.302;2023-06-14T11:36:15;29.37;37.33
66119;DHT22;52912;48.564;9.302;2023-06-14T11:38:40;30.46;36.82
66119;DHT22;52912;48.564;9.302;2023-06-14T11:41:06;30.80;36.19
66119;DHT22;52912;48.564;9.302;2023-06-14T11:43:31;29.14;36.67
66119;DHT22;52912;48.564;9.302;2023-06-14T11:45:57;29.27;36.95
66119;DHT22;52912;48.564;9.302;2023-06-14T11:48:35;28.86;37.59
66119;DHT22;52912;48.564;9.302;2023-06-14T11:51:01;29.57;37.74
66119;DHT22;52912;48.564;9.302;2023-06-14T11:53:26;29.98;37.73
66119;DHT22;52912;48.564;9.302;2023-06-14T11:55:52;29.70;38.19
66119;DHT22;52912;48.564;9.302;2023-06-14T11:58:18;28.25;37.96
66119;DHT22;52912;48.564;9.302;2023-06-14T12:00:43;26.75;40.04
66119;DHT22;52912;48.564;9.302;2023-06-14T12:03:09;28.05;38.88
66119;DHT22;52912;48.564;9.302;2023-06-14T12:05:36;29.16;37.76
66119;DHT22;52912;48.564;9.302;2023-06-14T12:08:02;29.64;37.08
66119;DHT22;52912;48.564;9.302;2023-06-14T12:10:29;29.46;36.69
66119;DHT22;52912;48.564;9.302;2023-06-14T12:12:57;29.81;35.34
66119;DHT22;52912;48.564;9.302;2023-06-14T12:15:23;30.15;35.70
66119;DHT22;52912;48.564;9.302;2023-06-14T12:17:48;30.57;35.81
66119;DHT22;52912;48.564;9.302;2023-06-14T12:20:15;30.15;37.06
66119;DHT22;52912;48.564;9.302;2023-06-14T12:22:50;29.11;38.38
66119;DHT22;52912;48.564;9.302;2023-06-14T12:25:27;28.61;38.41
66119;DHT22;52912;48.564;9.302;2023-06-14T12:27:53;28.18;39.17
66119;DHT22;52912;48.564;9.302;2023-06-14T12:30:18;29.54;38.06
66119;DHT22;52912;48.564;9.302;2023-06-14T12:32:44;29.80;37.34
66119;DHT22;52912;48.564;9.302;2023-06-14T12:35:09;29.85;37.06
66119;DHT22;52912;48.564;9.302;2023-06-14T12:37:35;30.30;36.80
66119;DHT22;52912;48.564;9.302;2023-06-14T12:40:01;30.70;36.13
66119;DHT22;52912;48.564;9.302;2023-06-14T12:42:27;30.41;35.50
66119;DHT22;52912;48.564;9.302;2023-06-14T12:44:52;30.56;36.05
66119;DHT22;52912;48.564;9.302;2023-06-14T12:47:18;30.70;35.61
66119;DHT22;52912;48.564;9.302;2023-06-14T12:49:43;31.19;35.47
66119;DHT22;52912;48.564;9.302;2023-06-14T12:52:09;31.59;35.10
66119;DHT22;52912;48.564;9.302;2023-06-14T12:54:34;31.60;35.28
66119;DHT22;52912;48.564;9.302;2023-06-14T12:57:01;29.60;37.51
66119;DHT22;52912;48.564;9.302;2023-06-14T12:59:27;29.78;38.41
66119;DHT22;52912;48.564;9.302;2023-06-14T13:01:52;28.80;38.57
66119;DHT22;52912;48.564;9.302;2023-06-14T13:04:18;28.71;38.38
66119;DHT22;52912;48.564;9.302;2023-06-14T13:06:43;28.19;38.56
66119;DHT22;52912;48.564;9.302;2023-06-14T13:09:09;28.59;38.72
66119;DHT22;52912;48.564;9.302;2023-06-14T13:11:34;28.40;38.52
66119;DHT22;52912;48.564;9.302;2023-06-14T13:14:01;29.15;37.85
66119;DHT22;52912;48.564;9.302;2023-06-14T13:16:27;30.11;36.35
66119;DHT22;52912;48.564;9.302;2023-06-14T13:18:52;30.33;35.50
66119;DHT22;52912;48.564;9.302;2023-06-14T13:21:17;30.60;36.05
66119;DHT22;52912;48.564;9.302;2023-06-14T13:23:43;31.12;35.35
66119;DHT22;52912;48.564;9.302;2023-06-14T13:26:08;31.21;35.23
66119;DHT22;52912;48.564;9.302;2023-06-14T13:28:34;30.99;35.46
66119;DHT22;52912;48.564;9.302;2023-06-14T13:31:01;29.54;37.68
66119;DHT22;52912;48.564;9.302;2023-06-14T13:33:26;29.46;37.75
66119;DHT22;52912;48.564;9.302;2023-06-14T13:35:52;29.16;37.92
66119;DHT22;52912;48.564;9.302;2023-06-14T13:38:17;28.25;39.49
66119;DHT22;52912;48.564;9.302;2023-06-14T13:40:43;28.36;38.67
66119;DHT22;52912;48.564;9.302;2023-06-14T13:43:08;28.36;38.72
66119;DHT22;52912;48.564;9.302;2023-06-14T13:45:34;28.72;38.59
66119;DHT22;52912;48.564;9.302;2023-06-14T13:48:01;28.37;39.08
66119;DHT22;52912;48.564;9.302;2023-06-14T13:50:26;28.61;38.43
66119;DHT22;52912;48.564;9.302;2023-06-14T13:52:52;28.77;37.65
66119;DHT22;52912;48.564;9.302;2023-06-14T13:55:17;29.36;36.95
66119;DHT22;52912;48.564;9.302;2023-06-14T13:57:43;29.67;36.10
66119;DHT22;52912;48.564;9.302;2023-06-14T14:00:09;28.57;37.46
66119;DHT22;52912;48.564;9.302;2023-06-14T14:02:35;29.43;35.88
66119;DHT22;52912;48.564;9.302;2023-06-14T14:05:01;30.23;35.18
66119;DHT22;52912;48.564;9.302;2023-06-14T14:07:27;31.28;34.38
66119;DHT22;52912;48.564;9.302;2023-06-14T14:09:52;30.44;35.20
66119;DHT22;52912;48.564;9.302;2023-06-14T14:12:18;29.61;35.95
66119;DHT22;52912;48.564;9.302;2023-06-14T14:14:43;29.39;37.25
66119;DHT22;52912;48.564;9.302;2023-06-14T14:17:09;29.50;37.45
66119;DHT22;52912;48.564;9.302;2023-06-14T14:19:34;29.67;36.82
66119;DHT22;52912;48.564;9.302;2023-06-14T14:22:01;29.84;36.51
66119;DHT22;52912;48.564;9.302;2023-06-14T14:24:27;28.78;37.69
66119;DHT22;52912;48.564;9.302;2023-06-14T14:26:52;29.49;36.88
66119;DHT22;52912;48.564;9.302;2023-06-14T14:29:18;30.52;35.95
66119;DHT22;52912;48.564;9.302;2023-06-14T14:31:43;30.92;35.52
66119;DHT22;52912;48.564;9.302;2023-06-14T14:34:09;30.32;35.88
66119;DHT22;52912;48.564;9.302;2023-06-14T14:36:34;31.05;34.70
66119;DHT22;52912;48.564;9.302;2023-06-14T14:39:01;30.68;35.85
66119;DHT22;52912;48.564;9.302;2023-06-14T14:41:27;29.87;36.37
66119;DHT22;52912;48.564;9.302;2023-06-14T14:43:53;31.05;35.86
66119;DHT22;52912;48.564;9.302;2023-06-14T14:46:18;31.15;34.56
66119;DHT22;52912;48.564;9.302;2023-06-14T14:48:44;30.92;35.77
66119;DHT22;52912;48.564;9.302;2023-06-14T14:51:09;31.29;34.79
66119;DHT22;52912;48.564;9.302;2023-06-14T14:53:35;30.35;36.08
66119;DHT22;52912;48.564;9.302;2023-06-14T14:56:01;30.33;36.95
66119;DHT22;52912;48.564;9.302;2023-06-14T14:58:27;31.09;35.88
66119;DHT22;52912;48.564;9.302;2023-06-14T15:00:52;30.43;36.30
66119;DHT22;52912;48.564;9.302;2023-06-14T15:03:18;30.29;36.38
66119;DHT22;52912;48.564;9.302;2023-06-14T15:05:43;29.32;36.99
66119;DHT22;52912;48.564;9.302;2023-06-14T15:08:09;30.25;36.19
66119;DHT22;52912;48.564;9.302;2023-06-14T15:10:34;30.71;35.38
66119;DHT22;52912;48.564;9.302;2023-06-14T15:13:01;31.01;35.58
66119;DHT22;52912;48.564;9.302;2023-06-14T15:15:26;29.85;36.75
66119;DHT22;52912;48.564;9.302;2023-06-14T15:17:52;29.94;36.70
66119;DHT22;52912;48.564;9.302;2023-06-14T15:20:18;30.05;37.35
66119;DHT22;52912;48.564;9.302;2023-06-14T15:22:43;30.01;36.84
66119;DHT22;52912;48.564;9.302;2023-06-14T15:25:09;30.23;36.25